sensor_id;sensor_type;location;lat;lon;timestamp;P1;durP1;ratioP1;P2;durP2;ratioP2
1975;SDS011;988;48.016;7.800;2022-07-23T00:02:13;27.73;;;25.83;;
1975;SDS011;988;48.016;7.800;2022-07-23T00:04:39;26.23;;;24.33;;
1975;SDS011;988;48.016;7.800;2022-07-23T00:07:05;26.57;;;24.73;;
1975;SDS011;988;48.016;7.800;2022-07-23T00:09:31;26.40;;;24.67;;
1975;SDS011;988;48.016;7.800;2022-07-23T00:11:57;26.50;;;24.70;;
1975;SDS011;988;48.016;7.800;2022-07-23T00:14:23;26.17;;;24.47;;
1975;SDS011;988;48.016;7.800;2022-07-23T00:16:49;26.20;;;24.40;;
1975;SDS011;988;48.016;7.800;2022-07-23T00:19:15;26.93;;;24.90;;
1975;SDS011;988;48.016;7.800;2022-07-23T00:21:41;26.53;;;24.83;;
1975;SDS011;988;48.016;7.800;2022-07-23T00:24:07;26.97;;;25.13;;
1975;SDS011;988;48.016;7.800;2022-07-23T00:26:33;26.57;;;24.73;;
1975;SDS011;988;48.016;7.800;2022-07-23T00:28:59;26.70;;;24.90;;
1975;SDS011;988;48.016;7.800;2022-07-23T00:31:25;26.50;;;24.37;;
1975;SDS011;988;48.016;7.800;2022-07-23T00:33:52;26.87;;;25.17;;
1975;SDS011;988;48.016;7.800;2022-07-23T00:36:22;26.67;;;24.87;;
1975;SDS011;988;48.016;7.800;2022-07-23T00:38:49;25.50;;;23.90;;
1975;SDS011;988;48.016;7.800;2022-07-23T00:41:15;26.23;;;24.23;;
1975;SDS011;988;48.016;7.800;2022-07-23T00:43:41;26.67;;;24.77;;
1975;SDS011;988;48.016;7.800;2022-07-23T00:46:07;25.90;;;24.10;;
1975;SDS011;988;48.016;7.800;2022-07-23T00:48:33;25.63;;;23.83;;
1975;SDS011;988;48.016;7.800;2022-07-23T00:50:59;26.37;;;24.40;;
1975;SDS011;988;48.016;7.800;2022-07-23T00:53:25;26.70;;;25.00;;
1975;SDS011;988;48.016;7.800;2022-07-23T00:55:52;25.67;;;23.87;;
1975;SDS011;988;48.016;7.800;2022-07-23T00:58:18;25.73;;;23.73;;
1975;SDS011;988;48.016;7.800;2022-07-23T01:00:45;25.70;;;23.83;;
1975;SDS011;988;48.016;7.800;2022-07-23T01:03:11;26.63;;;24.93;;
1975;SDS011;988;48.016;7.800;2022-07-23T01:05:37;26.50;;;24.30;;
1975;SDS011;988;48.016;7.800;2022-07-23T01:08:03;25.50;;;23.90;;
1975;SDS011;988;48.016;7.800;2022-07-23T01:10:30;25.70;;;23.80;;
1975;SDS011;988;48.016;7.800;2022-07-23T01:12:56;26.97;;;24.80;;
1975;SDS011;988;48.016;7.800;2022-07-23T01:15:22;26.47;;;24.37;;
1975;SDS011;988;48.016;7.800;2022-07-23T01:17:49;26.33;;;24.23;;
1975;SDS011;988;48.016;7.800;2022-07-23T01:20:15;27.20;;;25.20;;
1975;SDS011;988;48.016;7.800;2022-07-23T01:22:41;26.63;;;24.53;;
1975;SDS011;988;48.016;7.800;2022-07-23T01:25:08;27.00;;;24.80;;
1975;SDS011;988;48.016;7.800;2022-07-23T01:27:34;26.10;;;23.83;;
1975;SDS011;988;48.016;7.800;2022-07-23T01:30:00;26.37;;;24.33;;
1975;SDS011;988;48.016;7.800;2022-07-23T01:32:26;25.30;;;23.40;;
1975;SDS011;988;48.016;7.800;2022-07-23T01:34:52;25.67;;;23.87;;
1975;SDS011;988;48.016;7.800;2022-07-23T01:37:18;26.00;;;23.73;;
1975;SDS011;988;48.016;7.800;2022-07-23T01:39:44;25.07;;;22.97;;
1975;SDS011;988;48.016;7.800;2022-07-23T01:42:10;26.23;;;24.07;;
1975;SDS011;988;48.016;7.800;2022-07-23T01:44:36;24.83;;;23.00;;
1975;SDS011;988;48.016;7.800;2022-07-23T01:47:02;24.50;;;22.80;;
1975;SDS011;988;48.016;7.800;2022-07-23T01:49:28;24.77;;;22.67;;
1975;SDS011;988;48.016;7.800;2022-07-23T01:51:54;24.33;;;22.63;;
1975;SDS011;988;48.016;7.800;2022-07-23T01:54:27;26.07;;;24.27;;
1975;SDS011;988;48.016;7.800;2022-07-23T01:56:53;25.10;;;23.40;;
1975;SDS011;988;48.016;7.800;2022-07-23T01:59:19;25.50;;;23.80;;
1975;SDS011;988;48.016;7.800;2022-07-23T02:01:45;25.73;;;23.60;;
1975;SDS011;988;48.016;7.800;2022-07-23T02:04:11;25.40;;;23.67;;
1975;SDS011;988;48.016;7.800;2022-07-23T02:06:37;25.43;;;23.73;;
1975;SDS011;988;48.016;7.800;2022-07-23T02:09:03;26.70;;;24.70;;
1975;SDS011;988;48.016;7.800;2022-07-23T02:11:29;25.63;;;23.60;;
1975;SDS011;988;48.016;7.800;2022-07-23T02:13:55;24.80;;;23.03;;
1975;SDS011;988;48.016;7.800;2022-07-23T02:16:21;25.80;;;24.00;;
1975;SDS011;988;48.016;7.800;2022-07-23T02:18:47;27.13;;;25.10;;
1975;SDS011;988;48.016;7.800;2022-07-23T02:21:13;27.13;;;25.17;;
1975;SDS011;988;48.016;7.800;2022-07-23T02:23:39;25.50;;;23.70;;
1975;SDS011;988;48.016;7.800;2022-07-23T02:26:05;25.83;;;23.80;;
1975;SDS011;988;48.016;7.800;2022-07-23T02:28:31;26.23;;;24.33;;
1975;SDS011;988;48.016;7.800;2022-07-23T02:30:57;27.07;;;25.00;;
1975;SDS011;988;48.016;7.800;2022-07-23T02:33:23;26.00;;;24.30;;
1975;SDS011;988;48.016;7.800;2022-07-23T02:35:49;26.70;;;24.83;;
1975;SDS011;988;48.016;7.800;2022-07-23T02:38:15;25.77;;;24.07;;
1975;SDS011;988;48.016;7.800;2022-07-23T02:40:41;26.87;;;24.67;;
1975;SDS011;988;48.016;7.800;2022-07-23T02:43:07;26.17;;;24.27;;
1975;SDS011;988;48.016;7.800;2022-07-23T02:45:33;25.33;;;23.53;;
1975;SDS011;988;48.016;7.800;2022-07-23T02:47:59;25.93;;;24.03;;
1975;SDS011;988;48.016;7.800;2022-07-23T02:50:25;25.57;;;23.70;;
1975;SDS011;988;48.016;7.800;2022-07-23T02:52:51;25.60;;;23.90;;
1975;SDS011;988;48.016;7.800;2022-07-23T02:55:17;25.53;;;23.53;;
1975;SDS011;988;48.016;7.800;2022-07-23T02:57:43;24.53;;;22.63;;
1975;SDS011;988;48.016;7.800;2022-07-23T03:00:09;24.73;;;23.13;;
1975;SDS011;988;48.016;7.800;2022-07-23T03:02:35;24.00;;;22.40;;
1975;SDS011;988;48.016;7.800;2022-07-23T03:05:01;23.30;;;21.80;;
1975;SDS011;988;48.016;7.800;2022-07-23T03:07:27;24.80;;;23.00;;
1975;SDS011;988;48.016;7.800;2022-07-23T03:09:53;23.90;;;22.20;;
1975;SDS011;988;48.016;7.800;2022-07-23T03:12:19;25.33;;;23.63;;
1975;SDS011;988;48.016;7.800;2022-07-23T03:14:45;24.23;;;22.43;;
1975;SDS011;988;48.016;7.800;2022-07-23T03:17:11;24.00;;;22.40;;
1975;SDS011;988;48.016;7.800;2022-07-23T03:19:37;24.80;;;23.10;;
1975;SDS011;988;48.016;7.800;2022-07-23T03:22:03;24.67;;;22.97;;
1975;SDS011;988;48.016;7.800;2022-07-23T03:24:30;25.53;;;23.53;;
1975;SDS011;988;48.016;7.800;2022-07-23T03:27:14;23.83;;;21.97;;
1975;SDS011;988;48.016;7.800;2022-07-23T03:29:40;22.60;;;20.90;;
1975;SDS011;988;48.016;7.800;2022-07-23T03:32:06;23.27;;;21.43;;
1975;SDS011;988;48.016;7.800;2022-07-23T03:34:32;23.13;;;21.50;;
1975;SDS011;988;48.016;7.800;2022-07-23T03:36:58;23.43;;;21.73;;
1975;SDS011;988;48.016;7.800;2022-07-23T03:39:24;23.30;;;21.60;;
1975;SDS011;988;48.016;7.800;2022-07-23T03:41:50;23.03;;;21.27;;
1975;SDS011;988;48.016;7.800;2022-07-23T03:44:16;22.57;;;20.87;;
1975;SDS011;988;48.016;7.800;2022-07-23T03:46:42;24.03;;;22.13;;
1975;SDS011;988;48.016;7.800;2022-07-23T03:49:08;23.13;;;21.47;;
1975;SDS011;988;48.016;7.800;2022-07-23T03:51:34;23.30;;;21.60;;
1975;SDS011;988;48.016;7.800;2022-07-23T03:54:00;24.60;;;22.70;;
1975;SDS011;988;48.016;7.800;2022-07-23T03:56:26;24.00;;;22.20;;
1975;SDS011;988;48.016;7.800;2022-07-23T03:58:52;22.67;;;21.00;;
1975;SDS011;988;48.016;7.800;2022-07-23T04:01:18;22.83;;;21.10;;
1975;SDS011;988;48.016;7.800;2022-07-23T04:03:44;22.73;;;21.23;;
1975;SDS011;988;48.016;7.800;2022-07-23T04:06:11;26.17;;;23.63;;
1975;SDS011;988;48.016;7.800;2022-07-23T04:08:37;22.97;;;21.43;;
1975;SDS011;988;48.016;7.800;2022-07-23T04:11:03;24.13;;;22.33;;
1975;SDS011;988;48.016;7.800;2022-07-23T04:13:30;23.50;;;21.50;;
1975;SDS011;988;48.016;7.800;2022-07-23T04:15:57;25.10;;;23.20;;
1975;SDS011;988;48.016;7.800;2022-07-23T04:18:23;23.23;;;21.43;;
1975;SDS011;988;48.016;7.800;2022-07-23T04:20:53;22.53;;;20.93;;
1975;SDS011;988;48.016;7.800;2022-07-23T04:23:19;23.47;;;21.83;;
1975;SDS011;988;48.016;7.800;2022-07-23T04:25:45;23.30;;;21.63;;
1975;SDS011;988;48.016;7.800;2022-07-23T04:28:11;23.50;;;21.70;;
1975;SDS011;988;48.016;7.800;2022-07-23T04:30:37;22.40;;;20.70;;
1975;SDS011;988;48.016;7.800;2022-07-23T04:33:03;23.53;;;21.53;;
1975;SDS011;988;48.016;7.800;2022-07-23T04:35:35;21.60;;;20.00;;
1975;SDS011;988;48.016;7.800;2022-07-23T04:38:01;22.40;;;20.47;;
1975;SDS011;988;48.016;7.800;2022-07-23T04:40:27;21.77;;;20.07;;
1975;SDS011;988;48.016;7.800;2022-07-23T04:42:54;21.53;;;19.73;;
1975;SDS011;988;48.016;7.800;2022-07-23T04:45:20;21.13;;;19.40;;
1975;SDS011;988;48.016;7.800;2022-07-23T04:47:46;21.17;;;19.60;;
1975;SDS011;988;48.016;7.800;2022-07-23T04:50:12;21.90;;;20.17;;
1975;SDS011;988;48.016;7.800;2022-07-23T04:52:42;21.00;;;19.20;;
1975;SDS011;988;48.016;7.800;2022-07-23T04:55:08;20.33;;;18.73;;
1975;SDS011;988;48.016;7.800;2022-07-23T04:57:34;22.17;;;20.57;;
1975;SDS011;988;48.016;7.800;2022-07-23T05:00:00;21.70;;;19.97;;
1975;SDS011;988;48.016;7.800;2022-07-23T05:02:26;22.80;;;21.20;;
1975;SDS011;988;48.016;7.800;2022-07-23T05:04:52;24.03;;;21.73;;
1975;SDS011;988;48.016;7.800;2022-07-23T05:07:18;25.03;;;22.93;;
1975;SDS011;988;48.016;7.800;2022-07-23T05:09:44;24.87;;;22.93;;
1975;SDS011;988;48.016;7.800;2022-07-23T05:12:10;23.80;;;22.07;;
1975;SDS011;988;48.016;7.800;2022-07-23T05:14:36;24.27;;;22.10;;
1975;SDS011;988;48.016;7.800;2022-07-23T05:17:02;24.27;;;22.30;;
1975;SDS011;988;48.016;7.800;2022-07-23T05:19:28;25.20;;;23.30;;
1975;SDS011;988;48.016;7.800;2022-07-23T05:21:54;24.73;;;22.93;;
1975;SDS011;988;48.016;7.800;2022-07-23T05:24:20;25.43;;;23.63;;
1975;SDS011;988;48.016;7.800;2022-07-23T05:26:46;26.57;;;24.60;;
1975;SDS011;988;48.016;7.800;2022-07-23T05:29:12;26.00;;;24.10;;
1975;SDS011;988;48.016;7.800;2022-07-23T05:31:38;26.00;;;24.10;;
1975;SDS011;988;48.016;7.800;2022-07-23T05:34:04;27.10;;;25.10;;
1975;SDS011;988;48.016;7.800;2022-07-23T05:36:31;25.40;;;23.33;;
1975;SDS011;988;48.016;7.800;2022-07-23T05:38:57;25.87;;;23.83;;
1975;SDS011;988;48.016;7.800;2022-07-23T05:41:23;25.70;;;23.80;;
1975;SDS011;988;48.016;7.800;2022-07-23T05:43:49;26.37;;;24.37;;
1975;SDS011;988;48.016;7.800;2022-07-23T05:46:15;25.40;;;23.40;;
1975;SDS011;988;48.016;7.800;2022-07-23T05:48:41;24.53;;;22.67;;
1975;SDS011;988;48.016;7.800;2022-07-23T05:51:07;25.37;;;23.10;;
1975;SDS011;988;48.016;7.800;2022-07-23T05:53:34;25.40;;;23.40;;
1975;SDS011;988;48.016;7.800;2022-07-23T05:56:00;26.47;;;24.27;;
1975;SDS011;988;48.016;7.800;2022-07-23T05:58:26;27.57;;;25.43;;
1975;SDS011;988;48.016;7.800;2022-07-23T06:00:53;27.33;;;25.43;;
1975;SDS011;988;48.016;7.800;2022-07-23T06:03:19;27.77;;;25.67;;
1975;SDS011;988;48.016;7.800;2022-07-23T06:05:45;28.33;;;26.33;;
1975;SDS011;988;48.016;7.800;2022-07-23T06:08:11;28.83;;;26.63;;
1975;SDS011;988;48.016;7.800;2022-07-23T06:10:37;28.60;;;26.43;;
1975;SDS011;988;48.016;7.800;2022-07-23T06:13:04;28.13;;;26.03;;
1975;SDS011;988;48.016;7.800;2022-07-23T06:15:30;27.13;;;25.20;;
1975;SDS011;988;48.016;7.800;2022-07-23T06:17:56;27.63;;;25.67;;
1975;SDS011;988;48.016;7.800;2022-07-23T06:20:22;28.40;;;26.33;;
1975;SDS011;988;48.016;7.800;2022-07-23T06:22:48;25.60;;;23.80;;
1975;SDS011;988;48.016;7.800;2022-07-23T06:25:14;25.90;;;23.97;;
1975;SDS011;988;48.016;7.800;2022-07-23T06:27:41;27.83;;;25.83;;
1975;SDS011;988;48.016;7.800;2022-07-23T06:30:07;26.27;;;24.50;;
1975;SDS011;988;48.016;7.800;2022-07-23T06:32:35;29.10;;;26.60;;
1975;SDS011;988;48.016;7.800;2022-07-23T06:35:01;28.67;;;26.67;;
1975;SDS011;988;48.016;7.800;2022-07-23T06:37:27;27.90;;;25.80;;
1975;SDS011;988;48.016;7.800;2022-07-23T06:39:53;26.90;;;25.00;;
1975;SDS011;988;48.016;7.800;2022-07-23T06:42:19;27.20;;;25.30;;
1975;SDS011;988;48.016;7.800;2022-07-23T06:44:45;29.63;;;27.33;;
1975;SDS011;988;48.016;7.800;2022-07-23T06:47:11;28.27;;;25.77;;
1975;SDS011;988;48.016;7.800;2022-07-23T06:49:37;27.73;;;25.30;;
1975;SDS011;988;48.016;7.800;2022-07-23T06:52:03;27.17;;;24.93;;
1975;SDS011;988;48.016;7.800;2022-07-23T06:54:29;30.27;;;27.87;;
1975;SDS011;988;48.016;7.800;2022-07-23T06:56:55;29.63;;;27.30;;
1975;SDS011;988;48.016;7.800;2022-07-23T06:59:21;30.10;;;28.00;;
1975;SDS011;988;48.016;7.800;2022-07-23T07:01:47;30.67;;;28.67;;
1975;SDS011;988;48.016;7.800;2022-07-23T07:04:13;31.23;;;28.70;;
1975;SDS011;988;48.016;7.800;2022-07-23T07:06:39;30.33;;;28.17;;
1975;SDS011;988;48.016;7.800;2022-07-23T07:09:05;31.53;;;29.27;;
1975;SDS011;988;48.016;7.800;2022-07-23T07:11:31;32.43;;;30.13;;
1975;SDS011;988;48.016;7.800;2022-07-23T07:13:57;31.47;;;29.37;;
1975;SDS011;988;48.016;7.800;2022-07-23T07:16:23;32.93;;;30.33;;
1975;SDS011;988;48.016;7.800;2022-07-23T07:18:49;33.33;;;30.90;;
1975;SDS011;988;48.016;7.800;2022-07-23T07:21:14;33.73;;;30.97;;
1975;SDS011;988;48.016;7.800;2022-07-23T07:23:40;32.60;;;30.20;;
1975;SDS011;988;48.016;7.800;2022-07-23T07:26:06;31.33;;;29.13;;
1975;SDS011;988;48.016;7.800;2022-07-23T07:28:32;34.13;;;31.33;;
1975;SDS011;988;48.016;7.800;2022-07-23T07:30:58;33.03;;;30.70;;
1975;SDS011;988;48.016;7.800;2022-07-23T07:33:24;32.90;;;30.57;;
1975;SDS011;988;48.016;7.800;2022-07-23T07:35:52;31.57;;;29.37;;
1975;SDS011;988;48.016;7.800;2022-07-23T07:38:18;32.80;;;30.40;;
1975;SDS011;988;48.016;7.800;2022-07-23T07:40:44;31.87;;;29.67;;
1975;SDS011;988;48.016;7.800;2022-07-23T07:43:10;31.50;;;29.30;;
1975;SDS011;988;48.016;7.800;2022-07-23T07:45:36;33.37;;;30.63;;
1975;SDS011;988;48.016;7.800;2022-07-23T07:48:04;32.43;;;29.80;;
1975;SDS011;988;48.016;7.800;2022-07-23T07:50:33;31.20;;;29.10;;
1975;SDS011;988;48.016;7.800;2022-07-23T07:52:59;31.83;;;29.73;;
1975;SDS011;988;48.016;7.800;2022-07-23T07:55:25;32.50;;;30.00;;
1975;SDS011;988;48.016;7.800;2022-07-23T07:57:52;32.50;;;30.20;;
1975;SDS011;988;48.016;7.800;2022-07-23T08:00:18;32.60;;;30.00;;
1975;SDS011;988;48.016;7.800;2022-07-23T08:02:44;32.23;;;29.67;;
1975;SDS011;988;48.016;7.800;2022-07-23T08:05:14;32.57;;;30.20;;
1975;SDS011;988;48.016;7.800;2022-07-23T08:07:40;32.70;;;30.53;;
1975;SDS011;988;48.016;7.800;2022-07-23T08:10:07;33.30;;;31.00;;
1975;SDS011;988;48.016;7.800;2022-07-23T08:12:53;33.63;;;30.80;;
1975;SDS011;988;48.016;7.800;2022-07-23T08:15:21;32.90;;;30.50;;
1975;SDS011;988;48.016;7.800;2022-07-23T08:17:48;31.63;;;29.63;;
1975;SDS011;988;48.016;7.800;2022-07-23T08:20:15;31.50;;;29.30;;
1975;SDS011;988;48.016;7.800;2022-07-23T08:22:45;32.93;;;30.70;;
1975;SDS011;988;48.016;7.800;2022-07-23T08:25:13;31.37;;;29.23;;
1975;SDS011;988;48.016;7.800;2022-07-23T08:27:39;32.07;;;29.50;;
1975;SDS011;988;48.016;7.800;2022-07-23T08:30:05;32.73;;;30.63;;
1975;SDS011;988;48.016;7.800;2022-07-23T08:32:32;31.90;;;29.40;;
1975;SDS011;988;48.016;7.800;2022-07-23T08:34:58;32.30;;;30.10;;
1975;SDS011;988;48.016;7.800;2022-07-23T08:37:24;30.50;;;28.50;;
1975;SDS011;988;48.016;7.800;2022-07-23T08:39:50;32.13;;;30.03;;
1975;SDS011;988;48.016;7.800;2022-07-23T08:42:16;31.53;;;29.43;;
1975;SDS011;988;48.016;7.800;2022-07-23T08:44:44;32.10;;;30.00;;
1975;SDS011;988;48.016;7.800;2022-07-23T08:47:12;31.30;;;29.20;;
1975;SDS011;988;48.016;7.800;2022-07-23T08:49:38;35.10;;;32.37;;
1975;SDS011;988;48.016;7.800;2022-07-23T08:52:05;31.40;;;29.37;;
1975;SDS011;988;48.016;7.800;2022-07-23T08:54:31;33.30;;;31.00;;
1975;SDS011;988;48.016;7.800;2022-07-23T08:56:57;31.37;;;29.17;;
1975;SDS011;988;48.016;7.800;2022-07-23T08:59:23;31.17;;;28.80;;
1975;SDS011;988;48.016;7.800;2022-07-23T09:01:51;30.40;;;28.40;;
1975;SDS011;988;48.016;7.800;2022-07-23T09:04:17;30.93;;;28.53;;
1975;SDS011;988;48.016;7.800;2022-07-23T09:06:43;31.67;;;29.47;;
1975;SDS011;988;48.016;7.800;2022-07-23T09:09:20;30.60;;;28.50;;
1975;SDS011;988;48.016;7.800;2022-07-23T09:11:47;29.57;;;27.50;;
1975;SDS011;988;48.016;7.800;2022-07-23T09:14:14;30.70;;;28.70;;
1975;SDS011;988;48.016;7.800;2022-07-23T09:16:41;29.67;;;27.43;;
1975;SDS011;988;48.016;7.800;2022-07-23T09:19:09;30.20;;;28.20;;
1975;SDS011;988;48.016;7.800;2022-07-23T09:21:38;30.70;;;28.53;;
1975;SDS011;988;48.016;7.800;2022-07-23T09:24:11;31.87;;;29.77;;
1975;SDS011;988;48.016;7.800;2022-07-23T09:36:40;32.20;;;29.97;;
1975;SDS011;988;48.016;7.800;2022-07-23T09:39:06;29.27;;;27.37;;
1975;SDS011;988;48.016;7.800;2022-07-23T09:41:37;29.30;;;27.50;;
1975;SDS011;988;48.016;7.800;2022-07-23T09:44:07;30.43;;;28.43;;
1975;SDS011;988;48.016;7.800;2022-07-23T09:46:33;31.73;;;29.73;;
1975;SDS011;988;48.016;7.800;2022-07-23T09:48:59;30.87;;;28.97;;
1975;SDS011;988;48.016;7.800;2022-07-23T09:51:46;31.80;;;29.63;;
1975;SDS011;988;48.016;7.800;2022-07-23T09:57:00;31.80;;;29.80;;
1975;SDS011;988;48.016;7.800;2022-07-23T09:59:28;31.60;;;29.50;;
1975;SDS011;988;48.016;7.800;2022-07-23T10:02:11;32.93;;;30.60;;
1975;SDS011;988;48.016;7.800;2022-07-23T10:04:41;34.43;;;32.43;;
1975;SDS011;988;48.016;7.800;2022-07-23T10:07:09;30.83;;;29.03;;
1975;SDS011;988;48.016;7.800;2022-07-23T10:09:37;31.93;;;30.10;;
1975;SDS011;988;48.016;7.800;2022-07-23T10:12:06;32.23;;;30.30;;
1975;SDS011;988;48.016;7.800;2022-07-23T10:14:39;32.43;;;30.33;;
1975;SDS011;988;48.016;7.800;2022-07-23T10:17:06;32.30;;;30.20;;
1975;SDS011;988;48.016;7.800;2022-07-23T10:19:32;30.47;;;28.40;;
1975;SDS011;988;48.016;7.800;2022-07-23T10:22:02;31.40;;;29.50;;
1975;SDS011;988;48.016;7.800;2022-07-23T10:30:06;31.70;;;29.50;;
1975;SDS011;988;48.016;7.800;2022-07-23T10:37:54;31.20;;;29.27;;
1975;SDS011;988;48.016;7.800;2022-07-23T10:40:21;30.80;;;28.80;;
1975;SDS011;988;48.016;7.800;2022-07-23T10:42:51;31.00;;;29.03;;
1975;SDS011;988;48.016;7.800;2022-07-23T10:45:35;33.07;;;30.87;;
1975;SDS011;988;48.016;7.800;2022-07-23T10:48:19;32.03;;;30.13;;
1975;SDS011;988;48.016;7.800;2022-07-23T10:53:52;31.20;;;29.30;;
1975;SDS011;988;48.016;7.800;2022-07-23T10:59:04;32.63;;;30.63;;
1975;SDS011;988;48.016;7.800;2022-07-23T11:01:31;33.83;;;31.50;;
1975;SDS011;988;48.016;7.800;2022-07-23T11:03:58;31.10;;;29.10;;
1975;SDS011;988;48.016;7.800;2022-07-23T11:07:07;31.10;;;29.30;;
1975;SDS011;988;48.016;7.800;2022-07-23T11:09:50;31.43;;;29.63;;
1975;SDS011;988;48.016;7.800;2022-07-23T11:17:24;32.37;;;30.27;;
1975;SDS011;988;48.016;7.800;2022-07-23T11:25:14;34.17;;;32.10;;
1975;SDS011;988;48.016;7.800;2022-07-23T11:28:14;33.30;;;31.30;;
1975;SDS011;988;48.016;7.800;2022-07-23T11:30:44;34.33;;;32.10;;
1975;SDS011;988;48.016;7.800;2022-07-23T11:35:40;33.37;;;31.27;;
1975;SDS011;988;48.016;7.800;2022-07-23T11:40:36;33.23;;;31.23;;
1975;SDS011;988;48.016;7.800;2022-07-23T11:43:03;32.67;;;30.57;;
1975;SDS011;988;48.016;7.800;2022-07-23T11:45:32;33.73;;;31.73;;
1975;SDS011;988;48.016;7.800;2022-07-23T11:47:58;32.00;;;30.10;;
1975;SDS011;988;48.016;7.800;2022-07-23T11:50:25;33.07;;;30.80;;
1975;SDS011;988;48.016;7.800;2022-07-23T11:52:52;33.33;;;31.33;;
1975;SDS011;988;48.016;7.800;2022-07-23T11:55:18;32.73;;;30.80;;
1975;SDS011;988;48.016;7.800;2022-07-23T11:57:45;32.17;;;30.23;;
1975;SDS011;988;48.016;7.800;2022-07-23T12:00:12;32.93;;;30.90;;
1975;SDS011;988;48.016;7.800;2022-07-23T12:02:49;32.57;;;30.27;;
1975;SDS011;988;48.016;7.800;2022-07-23T12:05:18;33.37;;;31.40;;
1975;SDS011;988;48.016;7.800;2022-07-23T12:07:45;33.40;;;31.30;;
1975;SDS011;988;48.016;7.800;2022-07-23T12:10:22;32.97;;;30.80;;
1975;SDS011;988;48.016;7.800;2022-07-23T12:12:52;32.77;;;30.57;;
1975;SDS011;988;48.016;7.800;2022-07-23T12:15:19;30.50;;;28.70;;
1975;SDS011;988;48.016;7.800;2022-07-23T12:17:47;32.63;;;30.23;;
1975;SDS011;988;48.016;7.800;2022-07-23T12:20:15;32.83;;;30.83;;
1975;SDS011;988;48.016;7.800;2022-07-23T12:22:45;34.03;;;32.00;;
1975;SDS011;988;48.016;7.800;2022-07-23T12:27:38;34.63;;;32.37;;
1975;SDS011;988;48.016;7.800;2022-07-23T12:32:43;36.57;;;33.87;;
1975;SDS011;988;48.016;7.800;2022-07-23T12:35:11;33.63;;;31.53;;
1975;SDS011;988;48.016;7.800;2022-07-23T12:37:39;34.37;;;32.33;;
1975;SDS011;988;48.016;7.800;2022-07-23T12:42:57;34.83;;;32.80;;
1975;SDS011;988;48.016;7.800;2022-07-23T12:45:41;32.33;;;30.33;;
1975;SDS011;988;48.016;7.800;2022-07-23T12:48:25;35.27;;;32.90;;
1975;SDS011;988;48.016;7.800;2022-07-23T12:50:55;34.30;;;32.13;;
1975;SDS011;988;48.016;7.800;2022-07-23T12:58:53;31.10;;;29.10;;
1975;SDS011;988;48.016;7.800;2022-07-23T13:01:42;32.37;;;30.30;;
1975;SDS011;988;48.016;7.800;2022-07-23T13:04:18;31.43;;;28.50;;
1975;SDS011;988;48.016;7.800;2022-07-23T13:06:59;30.60;;;28.80;;
1975;SDS011;988;48.016;7.800;2022-07-23T13:09:47;30.10;;;28.30;;
1975;SDS011;988;48.016;7.800;2022-07-23T13:12:14;30.97;;;28.97;;
1975;SDS011;988;48.016;7.800;2022-07-23T13:14:42;31.10;;;29.27;;
1975;SDS011;988;48.016;7.800;2022-07-23T13:17:09;32.03;;;30.00;;
1975;SDS011;988;48.016;7.800;2022-07-23T13:19:36;30.03;;;28.30;;
1975;SDS011;988;48.016;7.800;2022-07-23T13:22:03;31.03;;;28.53;;
1975;SDS011;988;48.016;7.800;2022-07-23T13:24:29;30.63;;;28.63;;
1975;SDS011;988;48.016;7.800;2022-07-23T13:26:56;29.33;;;27.33;;
1975;SDS011;988;48.016;7.800;2022-07-23T13:29:22;30.87;;;29.03;;
1975;SDS011;988;48.016;7.800;2022-07-23T13:31:48;31.10;;;29.20;;
1975;SDS011;988;48.016;7.800;2022-07-23T13:34:14;31.00;;;28.90;;
1975;SDS011;988;48.016;7.800;2022-07-23T13:36:44;30.93;;;29.03;;
1975;SDS011;988;48.016;7.800;2022-07-23T13:39:10;30.77;;;28.40;;
1975;SDS011;988;48.016;7.800;2022-07-23T13:41:37;29.40;;;27.57;;
1975;SDS011;988;48.016;7.800;2022-07-23T13:44:07;30.00;;;28.10;;
1975;SDS011;988;48.016;7.800;2022-07-23T13:46:37;29.20;;;27.30;;
1975;SDS011;988;48.016;7.800;2022-07-23T13:49:03;30.23;;;28.33;;
1975;SDS011;988;48.016;7.800;2022-07-23T13:51:30;29.13;;;27.13;;
1975;SDS011;988;48.016;7.800;2022-07-23T13:53:58;30.03;;;28.03;;
1975;SDS011;988;48.016;7.800;2022-07-23T13:56:27;30.83;;;28.60;;
1975;SDS011;988;48.016;7.800;2022-07-23T13:58:54;29.17;;;27.23;;
1975;SDS011;988;48.016;7.800;2022-07-23T14:01:20;30.27;;;28.13;;
1975;SDS011;988;48.016;7.800;2022-07-23T14:03:48;31.00;;;28.93;;
1975;SDS011;988;48.016;7.800;2022-07-23T14:06:18;30.20;;;28.30;;
1975;SDS011;988;48.016;7.800;2022-07-23T14:08:46;31.27;;;29.27;;
1975;SDS011;988;48.016;7.800;2022-07-23T14:11:13;30.77;;;28.50;;
1975;SDS011;988;48.016;7.800;2022-07-23T14:13:46;28.93;;;27.00;;
1975;SDS011;988;48.016;7.800;2022-07-23T14:16:16;29.23;;;27.23;;
1975;SDS011;988;48.016;7.800;2022-07-23T14:18:45;29.13;;;27.33;;
1975;SDS011;988;48.016;7.800;2022-07-23T14:21:17;29.07;;;27.33;;
1975;SDS011;988;48.016;7.800;2022-07-23T14:23:47;29.27;;;27.47;;
1975;SDS011;988;48.016;7.800;2022-07-23T14:26:16;29.07;;;27.27;;
1975;SDS011;988;48.016;7.800;2022-07-23T14:28:45;30.10;;;28.00;;
1975;SDS011;988;48.016;7.800;2022-07-23T14:31:14;29.47;;;27.57;;
1975;SDS011;988;48.016;7.800;2022-07-23T14:33:40;31.17;;;29.07;;
1975;SDS011;988;48.016;7.800;2022-07-23T14:36:17;29.47;;;27.40;;
1975;SDS011;988;48.016;7.800;2022-07-23T14:39:10;30.00;;;27.90;;
1975;SDS011;988;48.016;7.800;2022-07-23T14:44:50;29.43;;;27.60;;
1975;SDS011;988;48.016;7.800;2022-07-23T14:50:47;29.53;;;27.50;;
1975;SDS011;988;48.016;7.800;2022-07-23T14:53:20;29.37;;;27.17;;
1975;SDS011;988;48.016;7.800;2022-07-23T14:58:56;30.93;;;29.03;;
1975;SDS011;988;48.016;7.800;2022-07-23T15:01:22;31.67;;;29.57;;
1975;SDS011;988;48.016;7.800;2022-07-23T15:03:49;33.00;;;30.70;;
1975;SDS011;988;48.016;7.800;2022-07-23T15:06:15;32.70;;;30.70;;
1975;SDS011;988;48.016;7.800;2022-07-23T15:08:41;31.27;;;29.23;;
1975;SDS011;988;48.016;7.800;2022-07-23T15:11:08;32.20;;;30.00;;
1975;SDS011;988;48.016;7.800;2022-07-23T15:13:34;32.47;;;30.37;;
1975;SDS011;988;48.016;7.800;2022-07-23T15:16:01;32.47;;;30.47;;
1975;SDS011;988;48.016;7.800;2022-07-23T15:18:27;32.57;;;30.17;;
1975;SDS011;988;48.016;7.800;2022-07-23T15:20:53;32.30;;;30.10;;
1975;SDS011;988;48.016;7.800;2022-07-23T15:23:19;31.83;;;29.73;;
1975;SDS011;988;48.016;7.800;2022-07-23T15:25:45;31.63;;;29.30;;
1975;SDS011;988;48.016;7.800;2022-07-23T15:28:11;31.80;;;29.80;;
1975;SDS011;988;48.016;7.800;2022-07-23T15:30:37;31.07;;;29.07;;
1975;SDS011;988;48.016;7.800;2022-07-23T15:33:03;31.30;;;29.37;;
1975;SDS011;988;48.016;7.800;2022-07-23T15:35:30;31.43;;;29.43;;
1975;SDS011;988;48.016;7.800;2022-07-23T15:37:56;30.60;;;28.70;;
1975;SDS011;988;48.016;7.800;2022-07-23T15:40:22;31.07;;;29.17;;
1975;SDS011;988;48.016;7.800;2022-07-23T15:42:48;32.80;;;29.90;;
1975;SDS011;988;48.016;7.800;2022-07-23T15:45:14;32.13;;;30.10;;
1975;SDS011;988;48.016;7.800;2022-07-23T15:47:40;31.00;;;29.10;;
1975;SDS011;988;48.016;7.800;2022-07-23T15:50:07;31.93;;;29.93;;
1975;SDS011;988;48.016;7.800;2022-07-23T15:52:34;32.03;;;30.03;;
1975;SDS011;988;48.016;7.800;2022-07-23T15:55:00;30.40;;;28.53;;
1975;SDS011;988;48.016;7.800;2022-07-23T15:57:26;31.23;;;29.13;;
1975;SDS011;988;48.016;7.800;2022-07-23T15:59:52;31.73;;;29.67;;
1975;SDS011;988;48.016;7.800;2022-07-23T16:02:21;30.80;;;28.90;;
1975;SDS011;988;48.016;7.800;2022-07-23T16:04:47;30.97;;;29.00;;
1975;SDS011;988;48.016;7.800;2022-07-23T16:07:16;31.40;;;29.40;;
1975;SDS011;988;48.016;7.800;2022-07-23T16:09:45;31.60;;;29.60;;
1975;SDS011;988;48.016;7.800;2022-07-23T16:12:11;30.67;;;28.77;;